createdAt,value
2022-09-12T00:01:18.252Z,17.30
2022-09-12T00:03:46.274Z,17.30
2022-09-12T00:06:28.743Z,17.30
2022-09-12T00:09:02.520Z,17.30
2022-09-12T00:11:30.591Z,17.30
2022-09-12T00:14:01.105Z,17.20
2022-09-12T00:16:31.204Z,17.20
2022-09-12T00:18:59.483Z,17.20
2022-09-12T00:21:27.249Z,17.20
2022-09-12T00:23:55.509Z,17.20
2022-09-12T00:26:23.307Z,17.10
2022-09-12T00:28:51.469Z,17.10
2022-09-12T00:31:27.037Z,17.10
2022-09-12T00:33:57.153Z,17.10
2022-09-12T00:36:26.794Z,17.00
2022-09-12T00:38:54.897Z,17.00
2022-09-12T00:41:31.790Z,17.00
2022-09-12T00:44:02.231Z,17.00
2022-09-12T00:46:41.491Z,17.00
2022-09-12T00:49:35.609Z,17.00
2022-09-12T00:52:11.052Z,17.00
2022-09-12T00:55:10.254Z,16.90
2022-09-12T00:57:51.527Z,16.90
2022-09-12T01:00:21.986Z,16.90
2022-09-12T01:02:59.749Z,16.90
2022-09-12T01:05:29.937Z,16.80
2022-09-12T01:07:58.114Z,16.80
2022-09-12T01:10:26.207Z,16.80
2022-09-12T01:12:53.940Z,16.80
2022-09-12T01:15:21.461Z,16.70
2022-09-12T01:18:14.433Z,16.70
2022-09-12T01:21:11.735Z,16.70
2022-09-12T01:24:09.112Z,16.70
2022-09-12T01:26:56.590Z,16.60
2022-09-12T01:29:45.528Z,16.60
2022-09-12T01:32:24.974Z,16.60
2022-09-12T01:35:01.628Z,16.60
2022-09-12T01:37:48.249Z,16.60
2022-09-12T01:40:30.053Z,16.50
2022-09-12T01:43:25.334Z,16.50
2022-09-12T01:46:10.484Z,16.50
2022-09-12T01:48:51.300Z,16.40
2022-09-12T01:51:48.898Z,16.50
2022-09-12T01:54:26.737Z,16.40
2022-09-12T01:56:57.707Z,16.40
2022-09-12T01:59:41.220Z,16.40
2022-09-12T02:02:17.925Z,16.30
2022-09-12T02:04:54.012Z,16.30
2022-09-12T02:07:27.961Z,16.30
2022-09-12T02:10:01.933Z,16.30
2022-09-12T02:12:40.296Z,16.30
2022-09-12T02:15:09.577Z,16.30
2022-09-12T02:17:42.075Z,16.20
2022-09-12T02:20:26.008Z,16.30
2022-09-12T02:23:01.453Z,16.20
2022-09-12T02:25:30.699Z,16.20
2022-09-12T02:28:09.386Z,16.20
2022-09-12T02:30:44.510Z,16.10
2022-09-12T02:33:28.011Z,16.20
2022-09-12T02:36:13.243Z,16.10
2022-09-12T02:38:48.247Z,16.10
2022-09-12T02:41:21.005Z,16.10
2022-09-12T02:43:50.784Z,16.00
2022-09-12T02:46:32.988Z,16.00
2022-09-12T02:49:00.451Z,16.00
2022-09-12T02:51:28.179Z,16.00
2022-09-12T02:53:56.465Z,16.00
2022-09-12T02:56:29.292Z,15.90
2022-09-12T02:59:01.573Z,16.00
2022-09-12T03:01:56.728Z,15.90
2022-09-12T03:04:35.213Z,15.90
2022-09-12T03:07:14.611Z,15.90
2022-09-12T03:10:03.915Z,15.80
2022-09-12T03:12:56.116Z,15.90
2022-09-12T03:15:41.316Z,15.80
2022-09-12T03:18:14.884Z,15.80
2022-09-12T03:20:57.113Z,15.80
2022-09-12T03:24:05.453Z,15.80
2022-09-12T03:27:10.034Z,15.70
2022-09-12T03:29:40.396Z,15.70
2022-09-12T03:32:09.343Z,15.70
2022-09-12T03:34:36.735Z,15.60
2022-09-12T03:37:04.782Z,15.60
2022-09-12T03:39:32.693Z,15.60
2022-09-12T03:42:00.549Z,15.60
2022-09-12T03:44:28.390Z,15.60
2022-09-12T03:46:56.624Z,15.60
2022-09-12T03:49:24.145Z,15.50
2022-09-12T03:51:51.586Z,15.50
2022-09-12T03:54:19.046Z,15.50
2022-09-12T03:56:46.762Z,15.50
2022-09-12T03:59:14.419Z,15.40
2022-09-12T04:01:42.579Z,15.50
2022-09-12T04:04:10.844Z,15.40
2022-09-12T04:06:38.512Z,15.40
2022-09-12T04:09:06.007Z,15.40
2022-09-12T04:11:34.043Z,15.40
2022-09-12T04:14:01.688Z,15.30
2022-09-12T04:16:29.491Z,15.30
2022-09-12T04:18:56.956Z,15.30
2022-09-12T04:21:24.840Z,15.30
2022-09-12T04:23:52.466Z,15.30
2022-09-12T04:26:20.961Z,15.20
2022-09-12T04:28:49.206Z,15.30
2022-09-12T04:31:20.237Z,15.20
2022-09-12T04:33:53.397Z,15.20
2022-09-12T04:36:21.029Z,15.20
2022-09-12T04:38:48.672Z,15.20
2022-09-12T04:41:22.450Z,15.20
2022-09-12T04:43:54.317Z,15.10
2022-09-12T04:46:22.949Z,15.10
2022-09-12T04:48:56.087Z,15.10
2022-09-12T04:51:31.113Z,15.10
2022-09-12T04:54:01.765Z,15.10
2022-09-12T04:56:30.462Z,15.00
2022-09-12T04:59:00.624Z,15.00
2022-09-12T05:01:30.314Z,15.00
2022-09-12T05:04:00.122Z,15.00
2022-09-12T05:06:30.575Z,15.00
2022-09-12T05:08:59.272Z,14.90
2022-09-12T05:11:46.774Z,15.00
2022-09-12T05:14:18.012Z,15.00
2022-09-12T05:16:49.416Z,15.00
2022-09-12T05:19:18.985Z,15.00
2022-09-12T05:21:46.914Z,14.90
2022-09-12T05:24:17.218Z,14.90
2022-09-12T05:26:45.317Z,14.80
2022-09-12T05:29:13.381Z,14.90
2022-09-12T05:31:42.160Z,14.80
2022-09-12T05:34:10.429Z,14.90
2022-09-12T05:36:38.725Z,14.80
2022-09-12T05:39:06.284Z,14.80
2022-09-12T05:41:35.169Z,14.80
2022-09-12T05:44:05.991Z,14.80
2022-09-12T05:46:38.899Z,14.80
2022-09-12T05:49:11.477Z,14.80
2022-09-12T05:51:44.623Z,14.80
2022-09-12T05:54:15.319Z,14.80
2022-09-12T05:56:44.198Z,14.80
2022-09-12T05:59:17.331Z,14.80
2022-09-12T06:01:45.773Z,14.80
2022-09-12T06:04:13.929Z,14.70
2022-09-12T06:06:45.358Z,14.70
2022-09-12T06:09:17.268Z,14.80
2022-09-12T06:11:46.168Z,14.80
2022-09-12T06:14:16.265Z,14.80
2022-09-12T06:16:43.888Z,14.70
2022-09-12T06:19:20.565Z,14.70
2022-09-12T06:21:49.860Z,14.70
2022-09-12T06:24:18.797Z,14.80
2022-09-12T06:26:47.678Z,14.80
2022-09-12T06:29:17.411Z,14.80
2022-09-12T06:31:47.517Z,14.80
2022-09-12T06:34:22.607Z,14.70
2022-09-12T06:36:56.433Z,14.70
2022-09-12T06:39:34.575Z,14.80
2022-09-12T06:42:09.270Z,14.80
2022-09-12T06:44:45.956Z,14.80
2022-09-12T06:50:39.053Z,14.80
2022-09-12T06:56:59.654Z,14.80
2022-09-12T07:05:38.318Z,14.90
2022-09-12T07:08:32.098Z,15.00
2022-09-12T07:11:24.633Z,15.00
2022-09-12T07:14:26.336Z,15.00
2022-09-12T07:17:20.500Z,15.00
2022-09-12T07:30:12.165Z,15.10
2022-09-12T07:32:39.720Z,15.10
2022-09-12T07:35:10.704Z,15.20
2022-09-12T07:37:38.325Z,15.20
2022-09-12T07:40:11.772Z,15.30
2022-09-12T07:42:41.517Z,15.30
2022-09-12T07:45:11.725Z,15.30
2022-09-12T07:47:41.651Z,15.30
2022-09-12T07:50:12.002Z,15.30
2022-09-12T07:52:41.466Z,15.40
2022-09-12T07:55:13.285Z,15.30
2022-09-12T07:57:45.576Z,15.40
2022-09-12T08:00:15.917Z,15.40
2022-09-12T08:02:46.429Z,15.40
2022-09-12T08:05:15.064Z,15.40
2022-09-12T08:07:44.182Z,15.40
2022-09-12T08:10:11.649Z,15.50
2022-09-12T08:12:45.997Z,15.50
2022-09-12T08:15:15.529Z,15.50
2022-09-12T08:17:46.732Z,15.50
2022-09-12T08:20:14.489Z,15.50
2022-09-12T08:22:43.574Z,15.50
2022-09-12T08:25:20.563Z,15.60
2022-09-12T08:27:50.672Z,15.50
2022-09-12T08:30:19.834Z,15.60
2022-09-12T08:32:48.217Z,15.60
2022-09-12T08:35:25.967Z,15.60
2022-09-12T08:37:53.896Z,15.60
2022-09-12T08:40:21.447Z,15.60
2022-09-12T08:43:00.970Z,15.70
2022-09-12T08:45:53.565Z,15.70
2022-09-12T08:48:23.146Z,15.70
2022-09-12T08:50:52.477Z,15.60
2022-09-12T08:53:24.923Z,15.80
2022-09-12T08:56:00.479Z,15.70
2022-09-12T08:58:29.355Z,15.70
2022-09-12T09:01:16.067Z,15.80
2022-09-12T09:03:59.810Z,15.80
2022-09-12T09:06:51.848Z,15.90
2022-09-12T09:09:37.156Z,15.90
2022-09-12T09:12:19.690Z,15.90
2022-09-12T09:15:09.585Z,16.00
2022-09-12T09:17:43.849Z,16.00
2022-09-12T09:20:23.006Z,16.00
2022-09-12T09:22:57.112Z,16.00
2022-09-12T09:25:37.452Z,16.10
2022-09-12T09:28:37.019Z,16.10
2022-09-12T09:31:07.962Z,16.10
2022-09-12T09:33:36.415Z,16.10
2022-09-12T09:36:28.307Z,16.20
2022-09-12T09:39:11.214Z,16.20
2022-09-12T09:42:07.886Z,16.20
2022-09-12T09:44:35.388Z,16.20
2022-09-12T09:47:02.808Z,16.20
2022-09-12T09:49:33.815Z,16.30
2022-09-12T09:52:02.695Z,16.30
2022-09-12T09:55:12.427Z,16.30
2022-09-12T09:57:43.040Z,16.40
2022-09-12T10:00:40.571Z,16.40
2022-09-12T10:03:14.128Z,16.40
2022-09-12T10:06:44.144Z,16.40
2022-09-12T10:09:36.436Z,16.50
2022-09-12T10:12:29.653Z,16.50
2022-09-12T10:15:16.622Z,16.40
2022-09-12T10:17:49.509Z,16.40
2022-09-12T10:20:44.849Z,16.40
2022-09-12T10:23:40.564Z,16.50
2022-09-12T10:26:17.545Z,16.40
2022-09-12T10:28:55.804Z,16.50
2022-09-12T10:31:50.082Z,16.60
2022-09-12T10:34:34.999Z,16.50
2022-09-12T10:37:13.069Z,16.60
2022-09-12T10:39:40.978Z,16.60
2022-09-12T10:42:19.252Z,16.60
2022-09-12T10:44:55.827Z,16.60
2022-09-12T10:47:25.301Z,16.60
2022-09-12T10:49:52.951Z,16.60
2022-09-12T10:52:29.167Z,16.60
2022-09-12T10:55:05.074Z,16.70
2022-09-12T10:57:44.341Z,16.70
2022-09-12T11:00:20.405Z,16.70
2022-09-12T11:03:02.742Z,16.70
2022-09-12T11:05:37.714Z,16.70
2022-09-12T11:08:34.330Z,16.70
2022-09-12T11:11:34.879Z,16.80
2022-09-12T11:14:11.954Z,16.80
2022-09-12T11:16:56.935Z,16.80
2022-09-12T11:20:29.533Z,16.90
2022-09-12T11:23:21.653Z,16.90
2022-09-12T11:26:37.750Z,16.90
2022-09-12T11:29:38.362Z,16.90
2022-09-12T11:32:13.063Z,17.00
2022-09-12T11:35:12.870Z,17.00
2022-09-12T11:38:07.653Z,17.00
2022-09-12T11:40:58.340Z,17.00
2022-09-12T11:43:40.760Z,17.10
2022-09-12T11:46:21.486Z,17.10
2022-09-12T11:49:01.643Z,17.10
2022-09-12T11:51:33.907Z,17.10
2022-09-12T11:54:14.219Z,17.10
2022-09-12T11:56:46.695Z,17.20
2022-09-12T11:59:28.317Z,17.20
2022-09-12T12:02:02.923Z,17.20
2022-09-12T12:04:41.648Z,17.20
2022-09-12T12:07:12.240Z,17.20
2022-09-12T12:09:51.341Z,17.20
2022-09-12T12:12:28.406Z,17.30
2022-09-12T12:14:57.456Z,17.30
2022-09-12T12:17:26.162Z,17.30
2022-09-12T12:20:08.443Z,17.30
2022-09-12T12:22:37.514Z,17.40
2022-09-12T12:25:17.229Z,17.40
2022-09-12T12:28:01.657Z,17.40
2022-09-12T12:30:32.251Z,17.40
2022-09-12T12:33:13.371Z,17.40
2022-09-12T12:36:00.237Z,17.40
2022-09-12T12:38:33.951Z,17.50
2022-09-12T12:41:19.696Z,17.50
2022-09-12T12:43:49.500Z,17.50
2022-09-12T12:46:22.758Z,17.50
2022-09-12T12:48:54.296Z,17.50
2022-09-12T12:51:33.846Z,17.60
2022-09-12T12:54:26.448Z,17.60
2022-09-12T12:57:04.599Z,17.60
2022-09-12T12:59:32.431Z,17.60
2022-09-12T13:02:02.370Z,17.70
2022-09-12T13:04:32.813Z,17.70
2022-09-12T13:07:08.429Z,17.70
2022-09-12T13:09:52.912Z,17.70
2022-09-12T13:12:27.674Z,17.80
2022-09-12T13:14:57.102Z,17.80
2022-09-12T13:17:36.212Z,17.80
2022-09-12T13:20:28.231Z,17.80
2022-09-12T13:22:56.985Z,17.90
2022-09-12T13:25:33.801Z,17.90
2022-09-12T13:28:13.069Z,17.90
2022-09-12T13:30:44.984Z,17.90
2022-09-12T13:33:21.172Z,17.90
2022-09-12T13:35:48.641Z,17.90
2022-09-12T13:38:58.033Z,18.00
2022-09-12T13:41:44.512Z,18.00
2022-09-12T13:44:16.284Z,18.00
2022-09-12T13:46:44.525Z,18.00
2022-09-12T13:49:21.732Z,18.10
2022-09-12T13:52:05.326Z,18.10
2022-09-12T13:54:34.772Z,18.10
2022-09-12T13:57:03.272Z,18.10
2022-09-12T13:59:41.342Z,18.10
2022-09-12T14:02:23.311Z,18.10
2022-09-12T14:05:12.135Z,18.20
2022-09-12T14:07:53.558Z,18.10
2022-09-12T14:10:32.095Z,18.10
2022-09-12T14:13:02.487Z,18.10
2022-09-12T14:15:33.391Z,18.20
2022-09-12T14:18:04.461Z,18.20
2022-09-12T14:20:36.764Z,18.20
2022-09-12T14:23:17.992Z,18.20
2022-09-12T14:25:48.290Z,18.20
2022-09-12T14:28:23.989Z,18.20
2022-09-12T14:31:32.637Z,18.20
2022-09-12T14:34:12.947Z,18.20
2022-09-12T14:36:49.981Z,18.20
2022-09-12T14:39:18.231Z,18.20
2022-09-12T14:41:49.221Z,18.20
2022-09-12T14:44:26.167Z,18.20
2022-09-12T14:46:55.064Z,18.30
2022-09-12T14:49:35.396Z,18.30
2022-09-12T14:52:29.429Z,18.30
2022-09-12T14:55:02.150Z,18.30
2022-09-12T14:57:39.564Z,18.30
2022-09-12T15:00:21.177Z,18.30
2022-09-12T15:02:51.403Z,18.30
2022-09-12T15:05:25.699Z,18.40
2022-09-12T15:08:04.883Z,18.40
2022-09-12T15:10:37.928Z,18.40
2022-09-12T15:13:20.293Z,18.40
2022-09-12T15:15:52.098Z,18.40
2022-09-12T15:18:23.570Z,18.40
2022-09-12T15:21:04.943Z,18.40
2022-09-12T15:23:47.912Z,18.40
2022-09-12T15:26:19.571Z,18.40
2022-09-12T15:29:08.860Z,18.40
2022-09-12T15:31:57.446Z,18.40
2022-09-12T15:34:27.303Z,18.40
2022-09-12T15:36:58.631Z,18.40
2022-09-12T15:39:27.831Z,18.40
2022-09-12T15:41:56.037Z,18.40
2022-09-12T15:44:24.097Z,18.50
2022-09-12T15:47:04.027Z,18.50
2022-09-12T15:49:34.831Z,18.40
2022-09-12T15:52:05.177Z,18.50
2022-09-12T15:54:34.212Z,18.40
2022-09-12T15:57:07.555Z,18.50
2022-09-12T15:59:38.172Z,18.50
2022-09-12T16:02:06.505Z,18.40
2022-09-12T16:04:38.341Z,18.50
2022-09-12T16:07:06.945Z,18.50
2022-09-12T16:09:35.963Z,18.50
2022-09-12T16:12:08.466Z,18.50
2022-09-12T16:14:37.896Z,18.50
2022-09-12T16:17:10.825Z,18.50
2022-09-12T16:19:39.832Z,18.50
2022-09-12T16:22:07.819Z,18.50
2022-09-12T16:24:37.900Z,18.50
2022-09-12T16:27:08.456Z,18.50
2022-09-12T16:29:46.230Z,18.50
2022-09-12T16:32:19.740Z,18.50
2022-09-12T16:34:48.556Z,18.50
2022-09-12T16:37:16.137Z,18.50
2022-09-12T16:39:44.147Z,18.50
2022-09-12T16:42:13.713Z,18.50
2022-09-12T16:44:47.710Z,18.50
2022-09-12T16:47:16.125Z,18.50
2022-09-12T16:49:45.003Z,18.50
2022-09-12T16:52:16.705Z,18.50
2022-09-12T16:54:46.651Z,18.50
2022-09-12T16:57:14.718Z,18.50
2022-09-12T16:59:46.357Z,18.50
2022-09-12T17:05:32.010Z,18.50
2022-09-12T17:08:01.578Z,18.50
2022-09-12T17:10:30.793Z,18.50
2022-09-12T17:12:58.331Z,18.50
2022-09-12T17:15:29.966Z,18.50
2022-09-12T17:18:13.057Z,18.50
2022-09-12T17:20:48.599Z,18.50
2022-09-12T17:23:16.946Z,18.50
2022-09-12T17:25:55.752Z,18.50
2022-09-12T17:28:23.600Z,18.50
2022-09-12T17:30:59.755Z,18.50
2022-09-12T17:33:29.950Z,18.50
2022-09-12T17:36:31.212Z,18.50
2022-09-12T17:39:09.030Z,18.50
2022-09-12T17:41:59.258Z,18.50
2022-09-12T17:44:59.646Z,18.50
2022-09-12T17:47:51.037Z,18.50
2022-09-12T17:50:56.025Z,18.50
2022-09-12T17:53:48.011Z,18.50
2022-09-12T17:56:29.724Z,18.50
2022-09-12T17:59:19.717Z,18.50
2022-09-12T18:02:33.435Z,18.50
2022-09-12T18:12:18.010Z,18.50
2022-09-12T18:21:27.702Z,18.50
2022-09-12T18:24:17.757Z,18.50
2022-09-12T18:26:47.137Z,18.50
2022-09-12T18:29:17.135Z,18.50
2022-09-12T18:31:47.589Z,18.60
2022-09-12T18:34:16.366Z,18.70
2022-09-12T18:36:48.035Z,18.70
2022-09-12T18:39:18.352Z,18.80
2022-09-12T18:41:54.013Z,18.90
2022-09-12T18:44:25.284Z,19.00
2022-09-12T18:46:57.250Z,19.00
2022-09-12T18:49:30.407Z,19.00
2022-09-12T18:52:02.125Z,19.10
2022-09-12T18:54:35.965Z,19.10
2022-09-12T18:57:09.367Z,19.10
2022-09-12T18:59:38.888Z,19.20
2022-09-12T19:02:13.533Z,19.10
2022-09-12T19:04:44.680Z,19.20
2022-09-12T19:07:17.272Z,19.20
2022-09-12T19:09:48.711Z,19.20
2022-09-12T19:12:18.847Z,19.20
2022-09-12T19:14:50.161Z,19.20
2022-09-12T19:17:24.291Z,19.20
2022-09-12T19:19:55.978Z,19.30
2022-09-12T19:22:27.465Z,19.30
2022-09-12T19:24:58.113Z,19.30
2022-09-12T19:27:29.823Z,19.30
2022-09-12T19:30:01.099Z,19.30
2022-09-12T19:32:30.632Z,19.30
2022-09-12T19:35:00.827Z,19.30
2022-09-12T19:37:30.965Z,19.30
2022-09-12T19:40:01.053Z,19.30
2022-09-12T19:42:30.378Z,19.30
2022-09-12T19:45:00.342Z,19.30
2022-09-12T19:47:31.647Z,19.30
2022-09-12T19:50:01.190Z,19.30
2022-09-12T19:52:34.436Z,19.30
2022-09-12T19:55:09.260Z,19.30
2022-09-12T19:57:39.660Z,19.30
2022-09-12T20:00:13.417Z,19.30
2022-09-12T20:02:44.123Z,19.30
2022-09-12T20:05:23.578Z,19.30
2022-09-12T20:07:58.137Z,19.40
2022-09-12T20:10:29.466Z,19.30
2022-09-12T20:13:03.458Z,19.30
2022-09-12T20:15:31.392Z,19.30
2022-09-12T20:17:59.328Z,19.30
2022-09-12T20:20:26.972Z,19.30
2022-09-12T20:22:54.451Z,19.30
2022-09-12T20:25:22.388Z,19.30
2022-09-12T20:27:50.193Z,19.30
2022-09-12T20:30:18.018Z,19.30
2022-09-12T20:32:45.245Z,19.30
2022-09-12T20:35:12.365Z,19.30
2022-09-12T20:37:40.801Z,19.40
2022-09-12T20:40:09.237Z,19.30
2022-09-12T20:42:36.744Z,19.40
2022-09-12T20:45:04.908Z,19.30
2022-09-12T20:47:32.168Z,19.30
2022-09-12T20:49:59.415Z,19.30
2022-09-12T20:52:26.616Z,19.30
2022-09-12T20:54:53.869Z,19.30
2022-09-12T20:57:21.127Z,19.30
2022-09-12T20:59:48.291Z,19.30
2022-09-12T21:02:16.313Z,19.30
2022-09-12T21:04:43.650Z,19.30
2022-09-12T21:07:10.908Z,19.30
2022-09-12T21:09:38.112Z,19.30
2022-09-12T21:12:05.442Z,19.30
2022-09-12T21:14:32.647Z,19.30
2022-09-12T21:16:59.909Z,19.30
2022-09-12T21:19:26.982Z,19.30
2022-09-12T21:21:54.358Z,19.30
2022-09-12T21:24:21.462Z,19.30
2022-09-12T21:26:48.681Z,19.30
2022-09-12T21:29:28.975Z,19.30
2022-09-12T21:32:20.808Z,19.30
2022-09-12T21:34:55.730Z,19.30
2022-09-12T21:37:23.430Z,19.30
2022-09-12T21:39:52.947Z,19.30
2022-09-12T21:42:22.326Z,19.30
2022-09-12T21:44:51.962Z,19.30
2022-09-12T21:47:24.997Z,19.20
2022-09-12T21:49:55.545Z,19.30
2022-09-12T21:52:25.078Z,19.20
2022-09-12T21:54:56.933Z,19.20
2022-09-12T21:57:25.227Z,19.20
2022-09-12T21:59:54.957Z,19.20
2022-09-12T22:02:25.775Z,19.20
2022-09-12T22:04:54.313Z,19.20
2022-09-12T22:07:25.780Z,19.20
2022-09-12T22:09:54.672Z,19.20
2022-09-12T22:12:23.598Z,19.20
2022-09-12T22:14:51.867Z,19.20
2022-09-12T22:17:21.154Z,19.20
2022-09-12T22:19:49.451Z,19.10
2022-09-12T22:22:36.492Z,19.20
2022-09-12T22:25:04.134Z,19.20
2022-09-12T22:27:31.303Z,19.10
2022-09-12T22:29:58.499Z,19.10
2022-09-12T22:32:25.687Z,19.10
2022-09-12T22:34:53.000Z,19.10
2022-09-12T22:37:20.900Z,19.10
2022-09-12T22:39:48.326Z,19.10
2022-09-12T22:42:15.668Z,19.10
2022-09-12T22:44:42.787Z,19.00
2022-09-12T22:47:10.551Z,19.00
2022-09-12T22:49:37.597Z,19.10
2022-09-12T22:52:04.889Z,19.00
2022-09-12T22:54:32.010Z,19.00
2022-09-12T22:56:59.054Z,19.00
2022-09-12T22:59:26.138Z,19.00
2022-09-12T23:01:53.227Z,19.00
2022-09-12T23:04:20.324Z,19.00
2022-09-12T23:06:47.397Z,19.00
2022-09-12T23:09:14.871Z,19.00
2022-09-12T23:11:41.896Z,19.00
2022-09-12T23:14:09.011Z,18.90
2022-09-12T23:16:36.246Z,18.90
2022-09-12T23:19:03.588Z,18.90
2022-09-12T23:21:30.718Z,18.90
2022-09-12T23:23:57.826Z,18.90
2022-09-12T23:26:28.400Z,18.90
2022-09-12T23:29:01.125Z,18.90
2022-09-12T23:31:30.477Z,18.90
2022-09-12T23:34:02.137Z,18.90
2022-09-12T23:36:30.119Z,18.90
2022-09-12T23:38:57.628Z,18.90
2022-09-12T23:41:25.177Z,18.90
2022-09-12T23:43:52.368Z,18.90
2022-09-12T23:46:20.550Z,18.90
2022-09-12T23:48:48.253Z,18.80
2022-09-12T23:51:16.046Z,18.80
2022-09-12T23:53:43.146Z,18.80
2022-09-12T23:56:10.374Z,18.80
2022-09-12T23:58:37.509Z,18.80
